| time (UTC) | temp F | wind direction | speed MPH | gust MPH | rain 1hr in | rain 24hr in | rain mn in | humidity % | barometer mb |
| 20260509032239 | 44 | 237 | 0.0 | 0.0 | 0.00 | 0.09 | 0.09 | 81 | 1011.8 |
| 20260509031737 | 44 | 243 | 0.0 | 0.0 | 0.00 | 0.09 | 0.09 | 80 | 1011.4 |
| 20260509031234 | 45 | 243 | 0.0 | 0.0 | 0.00 | 0.09 | 0.09 | 78 | 1011.8 |
| 20260509030732 | 45 | 241 | 0.0 | 0.0 | 0.00 | 0.09 | 0.09 | 77 | 1011.4 |
| 20260509030229 | 45 | 246 | 0.0 | 0.0 | 0.00 | 0.09 | 0.09 | 77 | 1011.4 |
| 20260509025726 | 45 | 240 | 0.0 | 0.0 | 0.00 | 0.09 | 0.09 | 77 | 1011.4 |
| 20260509025221 | 45 | 243 | 0.0 | 0.0 | 0.00 | 0.09 | 0.09 | 78 | 1011.4 |
| 20260509024717 | 46 | 240 | 0.0 | 0.0 | 0.00 | 0.09 | 0.09 | 78 | 1011.8 |
| 20260509024213 | 46 | 250 | 0.0 | 0.0 | 0.00 | 0.09 | 0.09 | 77 | 1011.4 |
| 20260509023711 | 46 | 237 | 0.0 | 0.0 | 0.00 | 0.09 | 0.09 | 76 | 1011.8 |
| 20260509023208 | 47 | 246 | 0.0 | 0.0 | 0.00 | 0.09 | 0.09 | 77 | 1011.4 |
| 20260509022703 | 47 | 253 | 0.0 | 0.0 | 0.00 | 0.09 | 0.09 | 77 | 1011.8 |
| 20260509022202 | 47 | 247 | 0.0 | 0.0 | 0.00 | 0.09 | 0.09 | 76 | 1011.4 |
| 20260509021658 | 47 | 245 | 0.0 | 0.0 | 0.00 | 0.09 | 0.09 | 76 | 1011.4 |
| 20260509021156 | 48 | 245 | 0.0 | 0.0 | 0.00 | 0.09 | 0.09 | 75 | 1011.8 |
| 20260509020654 | 48 | 241 | 0.0 | 0.0 | 0.00 | 0.09 | 0.09 | 74 | 1011.8 |
| 20260509020150 | 48 | 249 | 0.0 | 0.0 | 0.00 | 0.09 | 0.09 | 73 | 1011.8 |
| 20260509015649 | 48 | 252 | 0.0 | 0.0 | 0.00 | 0.09 | 0.09 | 74 | 1011.4 |
| 20260509015146 | 48 | 249 | 0.0 | 0.0 | 0.00 | 0.09 | 0.09 | 73 | 1011.8 |
| 20260509014643 | 49 | 238 | 0.0 | 0.0 | 0.00 | 0.09 | 0.09 | 73 | 1011.4 |
| 20260509014139 | 49 | 238 | 0.0 | 0.0 | 0.00 | 0.09 | 0.09 | 72 | 1011.8 |
| 20260509013636 | 49 | 242 | 0.0 | 0.0 | 0.00 | 0.09 | 0.09 | 70 | 1011.4 |
| 20260509013132 | 49 | 242 | 0.0 | 0.0 | 0.00 | 0.09 | 0.09 | 72 | 1011.4 |
| 20260509012628 | 49 | 246 | 0.0 | 0.0 | 0.00 | 0.09 | 0.09 | 70 | 1011.1 |
| 20260509012126 | 49 | 253 | 0.0 | 0.0 | 0.00 | 0.09 | 0.09 | 71 | 1011.1 |
| 20260509011624 | 49 | 245 | 0.0 | 0.0 | 0.00 | 0.09 | 0.09 | 67 | 1011.4 |
| 20260509011121 | 50 | 245 | 0.0 | 0.0 | 0.00 | 0.09 | 0.09 | 66 | 1011.1 |
| 20260509010618 | 50 | 241 | 0.0 | 0.0 | 0.00 | 0.09 | 0.09 | 66 | 1011.1 |
| 20260509010114 | 50 | 239 | 0.0 | 0.0 | 0.00 | 0.09 | 0.09 | 65 | 1011.1 |
| 20260509005612 | 50 | 243 | 0.0 | 0.0 | 0.00 | 0.09 | 0.09 | 65 | 1010.7 |
| 20260509005108 | 50 | 251 | 0.0 | 0.0 | 0.00 | 0.09 | 0.09 | 65 | 1011.1 |
| 20260509004604 | 50 | 252 | 0.0 | 0.0 | 0.00 | 0.09 | 0.09 | 67 | 1010.7 |
| 20260509004101 | 51 | 250 | 0.0 | 0.0 | 0.00 | 0.09 | 0.09 | 66 | 1010.4 |
| 20260509003600 | 51 | 252 | 0.0 | 0.0 | 0.00 | 0.09 | 0.09 | 64 | 1010.7 |
| 20260509003057 | 51 | 240 | 0.0 | 0.0 | 0.00 | 0.09 | 0.09 | 62 | 1010.4 |
| 20260509002554 | 51 | 252 | 0.0 | 0.0 | 0.00 | 0.09 | 0.09 | 63 | 1010.4 |
| 20260509002051 | 52 | 253 | 0.0 | 0.0 | 0.00 | 0.09 | 0.09 | 63 | 1010.4 |
| 20260509001549 | 53 | 250 | 0.0 | 0.0 | 0.00 | 0.09 | 0.09 | 59 | 1010.4 |
| 20260509001044 | 54 | 249 | 0.0 | 0.0 | 0.00 | 0.09 | 0.09 | 50 | 1010.4 |
| 20260509000543 | 54 | 246 | 0.0 | 0.0 | 0.00 | 0.09 | 0.09 | 50 | 1010.4 |
| 20260509000038 | 54 | 294 | 1.0 | 1.0 | 0.00 | 0.09 | 0.09 | 49 | 1010.4 |
| 20260508235537 | 54 | 252 | 0.0 | 1.0 | 0.00 | 0.09 | 0.09 | 50 | 1010.1 |
| 20260508235032 | 55 | 317 | 3.0 | 3.0 | 0.00 | 0.09 | 0.09 | 48 | 1010.1 |
| 20260508234530 | 55 | 355 | 5.0 | 6.0 | 0.00 | 0.09 | 0.09 | 47 | 1010.1 |
| 20260508234026 | 55 | 345 | 5.0 | 8.0 | 0.00 | 0.09 | 0.09 | 47 | 1010.1 |
| 20260508233521 | 55 | 289 | 2.0 | 2.0 | 0.00 | 0.09 | 0.09 | 49 | 1010.1 |
| 20260508233017 | 56 | 251 | 3.0 | 3.0 | 0.00 | 0.09 | 0.09 | 47 | 1010.1 |
| 20260508232514 | 56 | 270 | 1.0 | 2.0 | 0.00 | 0.09 | 0.09 | 48 | 1009.7 |
| 20260508232011 | 57 | 259 | 1.0 | 1.0 | 0.00 | 0.09 | 0.09 | 46 | 1009.7 |
| 20260508231509 | 58 | 328 | 3.0 | 3.0 | 0.00 | 0.09 | 0.09 | 46 | 1009.7 |
| 20260508231006 | 57 | 283 | 2.0 | 2.0 | 0.00 | 0.09 | 0.09 | 45 | 1009.7 |
| 20260508230503 | 58 | 295 | 2.0 | 2.0 | 0.00 | 0.09 | 0.09 | 46 | 1009.7 |
| 20260508225959 | 58 | 257 | 0.0 | 1.0 | 0.00 | 0.09 | 0.09 | 45 | 1010.1 |
| 20260508225456 | 57 | 255 | 2.0 | 2.0 | 0.00 | 0.09 | 0.09 | 45 | 1009.7 |
| 20260508224953 | 57 | 243 | 0.0 | 0.0 | 0.00 | 0.09 | 0.09 | 48 | 1009.7 |
| 20260508224450 | 57 | 337 | 5.0 | 6.0 | 0.00 | 0.09 | 0.09 | 45 | 1010.1 |
| 20260508223948 | 57 | 249 | 1.0 | 2.0 | 0.00 | 0.09 | 0.09 | 45 | 1009.7 |
| 20260508223446 | 57 | 322 | 3.0 | 3.0 | 0.00 | 0.09 | 0.09 | 45 | 1010.1 |
| 20260508222943 | 57 | 312 | 4.0 | 5.0 | 0.00 | 0.09 | 0.09 | 45 | 1009.7 |
| 20260508222440 | 57 | 324 | 4.0 | 5.0 | 0.00 | 0.09 | 0.09 | 45 | 1009.7 |
| 20260508221936 | 57 | 246 | 0.0 | 0.0 | 0.00 | 0.09 | 0.09 | 48 | 1009.7 |
| 20260508221433 | 57 | 256 | 2.0 | 2.0 | 0.00 | 0.09 | 0.09 | 46 | 1009.7 |
| 20260508220929 | 57 | 353 | 3.0 | 3.0 | 0.00 | 0.09 | 0.09 | 46 | 1009.7 |
| 20260508220425 | 58 | 5 | 3.0 | 3.0 | 0.00 | 0.09 | 0.09 | 47 | 1010.1 |
| 20260508215922 | 57 | 268 | 1.0 | 1.0 | 0.00 | 0.09 | 0.09 | 45 | 1009.7 |
| 20260508215419 | 57 | 305 | 2.0 | 3.0 | 0.00 | 0.09 | 0.09 | 47 | 1010.1 |
| 20260508214915 | 57 | 329 | 2.0 | 3.0 | 0.00 | 0.09 | 0.09 | 46 | 1010.1 |
| 20260508214413 | 58 | 306 | 2.0 | 2.0 | 0.00 | 0.09 | 0.09 | 47 | 1009.7 |
| 20260508213909 | 58 | 289 | 3.0 | 3.0 | 0.00 | 0.09 | 0.09 | 45 | 1010.1 |
| 20260508213407 | 59 | 320 | 3.0 | 3.0 | 0.00 | 0.09 | 0.09 | 45 | 1010.1 |
| 20260508212902 | 59 | 264 | 2.0 | 2.0 | 0.00 | 0.09 | 0.09 | 46 | 1010.1 |
| 20260508212359 | 57 | 266 | 1.0 | 2.0 | 0.00 | 0.09 | 0.09 | 49 | 1010.1 |
| 20260508211855 | 57 | 329 | 3.0 | 3.0 | 0.00 | 0.09 | 0.09 | 47 | 1010.1 |
| 20260508211350 | 57 | 287 | 1.0 | 2.0 | 0.00 | 0.09 | 0.09 | 47 | 1010.1 |
| 20260508210848 | 57 | 259 | 2.0 | 2.0 | 0.00 | 0.09 | 0.09 | 47 | 1010.1 |
| 20260508210344 | 57 | 224 | 2.0 | 2.0 | 0.00 | 0.09 | 0.09 | 47 | 1010.1 |
| 20260508205841 | 59 | 255 | 2.0 | 2.0 | 0.00 | 0.09 | 0.09 | 45 | 1010.1 |
| 20260508205338 | 57 | 239 | 1.0 | 1.0 | 0.00 | 0.09 | 0.09 | 47 | 1010.1 |
| 20260508204834 | 59 | 239 | 2.0 | 2.0 | 0.00 | 0.09 | 0.09 | 46 | 1010.1 |
| 20260508204331 | 58 | 338 | 4.0 | 6.0 | 0.00 | 0.09 | 0.09 | 49 | 1010.1 |
| 20260508203827 | 58 | 252 | 0.0 | 0.0 | 0.00 | 0.09 | 0.09 | 51 | 1010.1 |
| 20260508203323 | 57 | 237 | 1.0 | 2.0 | 0.00 | 0.09 | 0.09 | 49 | 1010.1 |
| 20260508202813 | 57 | 287 | 1.0 | 1.0 | 0.00 | 0.09 | 0.09 | 50 | 1010.1 |
| 20260508202311 | 58 | 279 | 1.0 | 1.0 | 0.00 | 0.09 | 0.09 | 49 | 1010.4 |
| 20260508201808 | 59 | 251 | 1.0 | 1.0 | 0.00 | 0.09 | 0.09 | 47 | 1010.4 |
| 20260508201305 | 59 | 350 | 1.0 | 2.0 | 0.00 | 0.09 | 0.09 | 48 | 1010.4 |
| 20260508200801 | 59 | 280 | 2.0 | 3.0 | 0.00 | 0.09 | 0.09 | 49 | 1010.4 |
| 20260508200258 | 58 | 263 | 1.0 | 1.0 | 0.00 | 0.09 | 0.09 | 49 | 1010.7 |
| 20260508195754 | 57 | 293 | 2.0 | 2.0 | 0.00 | 0.09 | 0.09 | 50 | 1010.7 |
| 20260508195250 | 57 | 268 | 2.0 | 2.0 | 0.00 | 0.09 | 0.09 | 49 | 1010.7 |
| 20260508194747 | 56 | 266 | 3.0 | 5.0 | 0.00 | 0.09 | 0.09 | 51 | 1010.7 |
| 20260508194244 | 59 | 258 | 1.0 | 1.0 | 0.00 | 0.09 | 0.09 | 48 | 1010.7 |
| 20260508193741 | 56 | 204 | 0.0 | 1.0 | 0.00 | 0.09 | 0.09 | 52 | 1010.7 |
| 20260508193238 | 56 | 237 | 1.0 | 1.0 | 0.00 | 0.09 | 0.09 | 52 | 1010.7 |
| 20260508192734 | 56 | 234 | 1.0 | 2.0 | 0.00 | 0.09 | 0.09 | 51 | 1011.1 |
| 20260508192231 | 55 | 257 | 4.0 | 5.0 | 0.00 | 0.09 | 0.09 | 51 | 1011.1 |
| 20260508191729 | 56 | 238 | 3.0 | 3.0 | 0.00 | 0.09 | 0.09 | 53 | 1011.4 |
| 20260508191225 | 55 | 259 | 1.0 | 1.0 | 0.00 | 0.09 | 0.09 | 53 | 1011.1 |
| 20260508190723 | 55 | 243 | 2.0 | 2.0 | 0.00 | 0.09 | 0.09 | 54 | 1011.4 |
| 20260508190218 | 57 | 251 | 3.0 | 5.0 | 0.00 | 0.09 | 0.09 | 51 | 1011.4 |
| 20260508185715 | 56 | 356 | 2.0 | 3.0 | 0.00 | 0.09 | 0.09 | 53 | 1011.1 |
| 20260508185213 | 56 | 317 | 1.0 | 2.0 | 0.00 | 0.09 | 0.09 | 53 | 1011.1 |
| 20260508184710 | 55 | 281 | 0.0 | 1.0 | 0.00 | 0.09 | 0.09 | 57 | 1011.1 |
| 20260508184207 | 53 | 263 | 1.0 | 2.0 | 0.00 | 0.09 | 0.09 | 58 | 1011.8 |
| 20260508183703 | 54 | 312 | 3.0 | 3.0 | 0.00 | 0.09 | 0.09 | 55 | 1011.4 |
| 20260508183200 | 55 | 248 | 1.0 | 2.0 | 0.00 | 0.09 | 0.09 | 56 | 1011.1 |
| 20260508182656 | 55 | 247 | 1.0 | 1.0 | 0.00 | 0.09 | 0.09 | 56 | 1011.4 |
| 20260508182153 | 54 | 318 | 3.0 | 3.0 | 0.00 | 0.09 | 0.09 | 56 | 1011.4 |
| 20260508181649 | 56 | 250 | 0.0 | 1.0 | 0.00 | 0.09 | 0.09 | 55 | 1011.8 |
| 20260508181146 | 55 | 200 | 1.0 | 1.0 | 0.00 | 0.09 | 0.09 | 57 | 1011.4 |
| 20260508180642 | 58 | 250 | 3.0 | 5.0 | 0.00 | 0.09 | 0.09 | 51 | 1011.8 |
| 20260508180139 | 56 | 290 | 4.0 | 7.0 | 0.00 | 0.09 | 0.09 | 57 | 1011.8 |
| 20260508175636 | 55 | 5 | 3.0 | 6.0 | 0.00 | 0.09 | 0.09 | 64 | 1011.8 |
| 20260508175132 | 54 | 293 | 2.0 | 2.0 | 0.00 | 0.09 | 0.09 | 62 | 1011.8 |
| 20260508174630 | 52 | 9 | 2.0 | 2.0 | 0.00 | 0.09 | 0.09 | 67 | 1011.8 |
| 20260508174127 | 51 | 332 | 4.0 | 5.0 | 0.00 | 0.09 | 0.09 | 64 | 1012.1 |
| 20260508173624 | 51 | 270 | 3.0 | 3.0 | 0.00 | 0.09 | 0.09 | 67 | 1012.1 |
| 20260508173120 | 52 | 261 | 1.0 | 1.0 | 0.00 | 0.09 | 0.09 | 64 | 1012.1 |
| 20260508172617 | 53 | 320 | 4.0 | 7.0 | 0.00 | 0.09 | 0.09 | 65 | 1012.5 |
| 20260508172114 | 52 | 269 | 2.0 | 2.0 | 0.00 | 0.09 | 0.09 | 67 | 1012.1 |
| 20260508171610 | 50 | 225 | 1.0 | 1.0 | 0.00 | 0.09 | 0.09 | 72 | 1012.5 |
| 20260508171107 | 51 | 244 | 1.0 | 1.0 | 0.00 | 0.09 | 0.09 | 70 | 1012.5 |
| 20260508170604 | 48 | 330 | 2.0 | 2.0 | 0.00 | 0.09 | 0.09 | 73 | 1012.9 |
| 20260508165558 | 49 | 336 | 5.0 | 7.0 | 0.00 | 0.09 | 0.09 | 73 | 1012.9 |
| 20260508165055 | 49 | 249 | 0.0 | 0.0 | 0.00 | 0.09 | 0.09 | 73 | 1012.9 |
| 20260508164551 | 51 | 238 | 1.0 | 1.0 | 0.00 | 0.09 | 0.09 | 72 | 1012.5 |
| 20260508164048 | 51 | 304 | 2.0 | 2.0 | 0.00 | 0.09 | 0.09 | 72 | 1012.9 |
| 20260508163546 | 50 | 327 | 2.0 | 2.0 | 0.00 | 0.09 | 0.09 | 72 | 1012.9 |
| 20260508163042 | 50 | 245 | 0.0 | 0.0 | 0.00 | 0.09 | 0.09 | 75 | 1013.2 |
| 20260508162539 | 48 | 246 | 0.0 | 1.0 | 0.00 | 0.09 | 0.09 | 77 | 1013.2 |
| 20260508162037 | 48 | 192 | 3.0 | 3.0 | 0.00 | 0.09 | 0.09 | 76 | 1013.2 |
| 20260508161533 | 49 | 238 | 3.0 | 3.0 | 0.00 | 0.09 | 0.09 | 77 | 1013.2 |
| 20260508161030 | 48 | 222 | 2.0 | 2.0 | 0.00 | 0.09 | 0.09 | 75 | 1013.6 |
| 20260508160529 | 48 | 228 | 1.0 | 1.0 | 0.00 | 0.09 | 0.09 | 79 | 1013.2 |
| 20260508160026 | 48 | 250 | 1.0 | 1.0 | 0.00 | 0.09 | 0.09 | 81 | 1013.6 |
| 20260508155523 | 47 | 176 | 4.0 | 5.0 | 0.00 | 0.09 | 0.09 | 82 | 1013.6 |
| 20260508155020 | 45 | 225 | 2.0 | 2.0 | 0.00 | 0.09 | 0.09 | 83 | 1013.6 |
| 20260508154517 | 44 | 245 | 0.0 | 1.0 | 0.00 | 0.09 | 0.09 | 86 | 1013.9 |
| 20260508154014 | 45 | 241 | 1.0 | 2.0 | 0.00 | 0.09 | 0.09 | 84 | 1013.6 |
| 20260508153510 | 43 | 240 | 0.0 | 0.0 | 0.00 | 0.09 | 0.09 | 86 | 1013.6 |
| 20260508153007 | 44 | 31 | 2.0 | 2.0 | 0.00 | 0.09 | 0.09 | 84 | 1013.6 |
| 20260508152504 | 44 | 233 | 1.0 | 1.0 | 0.00 | 0.09 | 0.09 | 85 | 1013.6 |
| 20260508151959 | 45 | 248 | 1.0 | 2.0 | 0.00 | 0.09 | 0.09 | 85 | 1013.6 |
| 20260508151456 | 44 | 249 | 0.0 | 1.0 | 0.00 | 0.09 | 0.09 | 86 | 1013.2 |
| 20260508150953 | 43 | 198 | 0.0 | 1.0 | 0.00 | 0.09 | 0.09 | 85 | 1013.6 |
| 20260508150450 | 42 | 235 | 0.0 | 1.0 | 0.00 | 0.09 | 0.09 | 87 | 1013.2 |
| 20260508145945 | 42 | 250 | 1.0 | 1.0 | 0.00 | 0.09 | 0.09 | 86 | 1013.2 |
| 20260508145442 | 42 | 232 | 0.0 | 0.0 | 0.00 | 0.09 | 0.09 | 88 | 1013.2 |
| 20260508144939 | 42 | 210 | 1.0 | 1.0 | 0.00 | 0.09 | 0.09 | 90 | 1013.2 |
| 20260508144437 | 42 | 218 | 2.0 | 2.0 | 0.00 | 0.09 | 0.09 | 92 | 1013.6 |
| 20260508143934 | 40 | 238 | 1.0 | 2.0 | 0.00 | 0.09 | 0.09 | 95 | 1013.2 |
| 20260508143431 | 39 | 259 | 0.0 | 0.0 | 0.00 | 0.09 | 0.09 | 95 | 1013.6 |
| 20260508142927 | 39 | 226 | 1.0 | 1.0 | 0.00 | 0.09 | 0.09 | 96 | 1013.6 |
| 20260508142425 | 39 | 224 | 2.0 | 2.0 | 0.00 | 0.09 | 0.09 | 96 | 1013.2 |
| 20260508141921 | 39 | 245 | 1.0 | 1.0 | 0.00 | 0.09 | 0.09 | 97 | 1013.2 |
| 20260508141418 | 39 | 233 | 0.0 | 1.0 | 0.00 | 0.09 | 0.09 | 98 | 1013.2 |
| 20260508140915 | 39 | 247 | 1.0 | 1.0 | 0.00 | 0.09 | 0.09 | 98 | 1013.6 |
| 20260508140412 | 38 | 244 | 0.0 | 1.0 | 0.00 | 0.09 | 0.09 | 98 | 1013.6 |
| 20260508135908 | 38 | 251 | 0.0 | 1.0 | 0.00 | 0.09 | 0.09 | 98 | 1013.6 |
| 20260508135405 | 38 | 250 | 0.0 | 0.0 | 0.00 | 0.09 | 0.09 | 98 | 1013.6 |
| 20260508134901 | 39 | 246 | 0.0 | 0.0 | 0.00 | 0.09 | 0.09 | 98 | 1013.6 |
| 20260508134358 | 38 | 248 | 1.0 | 2.0 | 0.00 | 0.09 | 0.09 | 98 | 1013.2 |
| 20260508133854 | 38 | 243 | 0.0 | 0.0 | 0.00 | 0.09 | 0.09 | 98 | 1013.2 |
| 20260508133352 | 38 | 303 | 2.0 | 2.0 | 0.00 | 0.09 | 0.09 | 98 | 1013.2 |
| 20260508132849 | 38 | 1 | 3.0 | 3.0 | 0.00 | 0.09 | 0.09 | 98 | 1013.2 |
| 20260508132347 | 38 | 308 | 5.0 | 6.0 | 0.00 | 0.09 | 0.09 | 98 | 1013.2 |
| 20260508131843 | 39 | 343 | 3.0 | 3.0 | 0.00 | 0.09 | 0.09 | 98 | 1013.2 |
| 20260508131339 | 39 | 243 | 3.0 | 3.0 | 0.00 | 0.09 | 0.09 | 97 | 1013.6 |
| 20260508130836 | 39 | 256 | 1.0 | 2.0 | 0.00 | 0.09 | 0.09 | 97 | 1012.9 |
| 20260508130333 | 38 | 248 | 0.0 | 0.0 | 0.00 | 0.09 | 0.09 | 97 | 1012.9 |
| 20260508125829 | 39 | 254 | 0.0 | 1.0 | 0.00 | 0.09 | 0.09 | 98 | 1012.9 |
| 20260508125325 | 38 | 305 | 1.0 | 1.0 | 0.00 | 0.09 | 0.09 | 97 | 1012.9 |
| 20260508124823 | 39 | 243 | 1.0 | 1.0 | 0.00 | 0.09 | 0.09 | 98 | 1012.9 |
| 20260508124320 | 39 | 237 | 0.0 | 0.0 | 0.00 | 0.09 | 0.09 | 98 | 1012.5 |
| 20260508123818 | 39 | 247 | 2.0 | 2.0 | 0.00 | 0.09 | 0.09 | 99 | 1012.9 |
| 20260508123316 | 38 | 277 | 2.0 | 2.0 | 0.07 | 0.09 | 0.09 | 99 | 1012.9 |
| 20260508122812 | 37 | 229 | 1.0 | 1.0 | 0.07 | 0.09 | 0.09 | 99 | 1012.9 |
| 20260508122309 | 37 | 292 | 0.0 | 0.0 | 0.05 | 0.08 | 0.08 | 98 | 1012.9 |
| 20260508121806 | 37 | 258 | 1.0 | 2.0 | 0.12 | 0.08 | 0.08 | 98 | 1012.9 |
| 20260508121305 | 37 | 271 | 2.0 | 2.0 | 0.07 | 0.07 | 0.07 | 98 | 1012.9 |
| 20260508120802 | 38 | 251 | 0.0 | 0.0 | 0.07 | 0.06 | 0.06 | 98 | 1012.9 |
| 20260508120300 | 38 | 254 | 0.0 | 1.0 | 0.07 | 0.06 | 0.06 | 98 | 1012.5 |
| 20260508115757 | 38 | 267 | 0.0 | 1.0 | 0.05 | 0.05 | 0.05 | 97 | 1012.9 |
| 20260508115254 | 38 | 257 | 1.0 | 1.0 | 0.12 | 0.05 | 0.05 | 97 | 1012.5 |
| 20260508114750 | 38 | 254 | 0.0 | 0.0 | 0.12 | 0.04 | 0.04 | 97 | 1012.5 |
| 20260508114247 | 38 | 257 | 0.0 | 0.0 | 0.12 | 0.03 | 0.03 | 96 | 1012.5 |
| 20260508113744 | 38 | 237 | 0.0 | 0.0 | 0.12 | 0.02 | 0.02 | 95 | 1012.5 |
| 20260508113243 | 38 | 224 | 1.0 | 1.0 | 0.05 | 0.01 | 0.01 | 94 | 1012.1 |
| 20260508112739 | 38 | 224 | 0.0 | 1.0 | 0.00 | 0.00 | 0.00 | 94 | 1012.1 |
| 20260508112235 | 38 | 240 | 0.0 | 0.0 | 0.00 | 0.00 | 0.00 | 94 | 1011.8 |
| 20260508111732 | 38 | 241 | 2.0 | 2.0 | 0.00 | 0.00 | 0.00 | 95 | 1011.8 |
| 20260508111230 | 38 | 260 | 1.0 | 1.0 | 0.00 | 0.00 | 0.00 | 96 | 1011.8 |
| 20260508110726 | 38 | 229 | 1.0 | 1.0 | 0.00 | 0.00 | 0.00 | 97 | 1011.8 |
| 20260508110223 | 37 | 234 | 1.0 | 1.0 | 0.00 | 0.00 | 0.00 | 97 | 1011.4 |
| 20260508105718 | 37 | 240 | 0.0 | 0.0 | 0.00 | 0.00 | 0.00 | 98 | 1011.4 |
| 20260508105215 | 37 | 245 | 0.0 | 0.0 | 0.00 | 0.00 | 0.00 | 98 | 1011.4 |
| 20260508104713 | 36 | 251 | 0.0 | 0.0 | 0.00 | 0.00 | 0.00 | 97 | 1011.4 |
| 20260508104209 | 37 | 246 | 0.0 | 0.0 | 0.00 | 0.00 | 0.00 | 97 | 1011.4 |
| 20260508103707 | 37 | 240 | 0.0 | 0.0 | 0.00 | 0.00 | 0.00 | 97 | 1011.4 |
| 20260508103204 | 37 | 240 | 0.0 | 0.0 | 0.00 | 0.00 | 0.00 | 97 | 1011.1 |
| 20260508102701 | 37 | 237 | 0.0 | 0.0 | 0.00 | 0.00 | 0.00 | 97 | 1011.4 |
| 20260508102159 | 36 | 242 | 0.0 | 0.0 | 0.00 | 0.00 | 0.00 | 96 | 1011.4 |
| 20260508101655 | 37 | 249 | 0.0 | 0.0 | 0.00 | 0.00 | 0.00 | 96 | 1011.8 |
| 20260508101153 | 37 | 239 | 0.0 | 0.0 | 0.00 | 0.00 | 0.00 | 96 | 1011.1 |
| 20260508100650 | 37 | 237 | 0.0 | 0.0 | 0.00 | 0.00 | 0.00 | 96 | 1011.8 |
| 20260508100148 | 37 | 242 | 0.0 | 0.0 | 0.00 | 0.00 | 0.00 | 95 | 1011.4 |
| 20260508095645 | 37 | 247 | 0.0 | 0.0 | 0.00 | 0.00 | 0.00 | 95 | 1011.8 |
| 20260508095142 | 37 | 245 | 0.0 | 0.0 | 0.00 | 0.00 | 0.00 | 95 | 1011.8 |
| 20260508094638 | 37 | 255 | 0.0 | 0.0 | 0.00 | 0.00 | 0.00 | 95 | 1011.8 |
| 20260508094135 | 36 | 255 | 0.0 | 1.0 | 0.00 | 0.00 | 0.00 | 95 | 1012.1 |
| 20260508093633 | 36 | 321 | 2.0 | 2.0 | 0.00 | 0.00 | 0.00 | 95 | 1012.1 |
| 20260508093130 | 36 | 255 | 0.0 | 0.0 | 0.00 | 0.00 | 0.00 | 95 | 1011.8 |
| 20260508092627 | 36 | 329 | 2.0 | 2.0 | 0.00 | 0.00 | 0.00 | 95 | 1012.1 |
| 20260508092126 | 36 | 283 | 1.0 | 1.0 | 0.00 | 0.00 | 0.00 | 95 | 1011.8 |
| 20260508091623 | 36 | 277 | 1.0 | 1.0 | 0.00 | 0.00 | 0.00 | 95 | 1012.1 |
| 20260508091120 | 37 | 247 | 0.0 | 0.0 | 0.00 | 0.00 | 0.00 | 95 | 1012.1 |
| 20260508090618 | 37 | 315 | 2.0 | 2.0 | 0.00 | 0.00 | 0.00 | 95 | 1011.8 |
| 20260508090115 | 37 | 248 | 0.0 | 0.0 | 0.00 | 0.00 | 0.00 | 96 | 1012.1 |
| 20260508085611 | 37 | 256 | 0.0 | 1.0 | 0.00 | 0.00 | 0.00 | 96 | 1012.1 |
| 20260508085108 | 37 | 297 | 2.0 | 2.0 | 0.00 | 0.00 | 0.00 | 96 | 1012.1 |
| 20260508084604 | 37 | 301 | 1.0 | 2.0 | 0.00 | 0.00 | 0.00 | 96 | 1012.1 |
| 20260508084102 | 37 | 247 | 0.0 | 0.0 | 0.00 | 0.00 | 0.00 | 96 | 1012.1 |
| 20260508083559 | 36 | 248 | 0.0 | 0.0 | 0.00 | 0.00 | 0.00 | 96 | 1011.8 |
| 20260508083056 | 36 | 244 | 0.0 | 0.0 | 0.00 | 0.00 | 0.00 | 96 | 1012.1 |
| 20260508082552 | 36 | 249 | 0.0 | 0.0 | 0.00 | 0.00 | 0.00 | 97 | 1012.5 |
| 20260508082049 | 36 | 249 | 0.0 | 0.0 | 0.00 | 0.00 | 0.00 | 97 | 1012.1 |
| 20260508081547 | 36 | 234 | 0.0 | 1.0 | 0.00 | 0.00 | 0.00 | 97 | 1011.8 |
| 20260508081042 | 35 | 249 | 0.0 | 0.0 | 0.00 | 0.00 | 0.00 | 96 | 1011.8 |
| 20260508080541 | 35 | 243 | 0.0 | 0.0 | 0.00 | 0.00 | 0.00 | 96 | 1011.8 |
| 20260508080038 | 35 | 239 | 0.0 | 0.0 | 0.00 | 0.00 | 0.00 | 96 | 1011.8 |
| 20260508075534 | 35 | 254 | 0.0 | 0.0 | 0.00 | 0.00 | 0.00 | 96 | 1011.8 |
| 20260508075032 | 35 | 248 | 0.0 | 0.0 | 0.00 | 0.00 | 0.00 | 95 | 1011.8 |
| 20260508074529 | 35 | 240 | 0.0 | 0.0 | 0.00 | 0.00 | 0.00 | 95 | 1011.8 |
| 20260508074026 | 35 | 242 | 0.0 | 0.0 | 0.00 | 0.00 | 0.00 | 95 | 1011.8 |
| 20260508073523 | 35 | 236 | 0.0 | 0.0 | 0.00 | 0.00 | 0.00 | 95 | 1011.8 |
| 20260508073021 | 36 | 249 | 0.0 | 0.0 | 0.00 | 0.00 | 0.00 | 94 | 1011.8 |
| 20260508072516 | 36 | 240 | 0.0 | 0.0 | 0.00 | 0.00 | 0.00 | 94 | 1012.1 |
| 20260508072014 | 36 | 255 | 1.0 | 1.0 | 0.00 | 0.00 | 0.00 | 94 | 1012.1 |
| 20260508071512 | 37 | 248 | 0.0 | 0.0 | 0.00 | 0.00 | 0.00 | 94 | 1011.8 |
| 20260508071009 | 37 | 240 | 0.0 | 0.0 | 0.00 | 0.00 | 0.00 | 93 | 1011.8 |
| 20260508070506 | 37 | 260 | 1.0 | 1.0 | 0.00 | 0.00 | 0.00 | 93 | 1011.8 |
| 20260508070005 | 37 | 245 | 0.0 | 0.0 | 0.00 | 0.00 | 0.00 | 93 | 1012.1 |
| 20260508065502 | 37 | 239 | 0.0 | 0.0 | 0.00 | 0.00 | 0.00 | 92 | 1011.8 |
| 20260508065000 | 37 | 239 | 0.0 | 0.0 | 0.00 | 0.00 | 0.00 | 92 | 1012.1 |
| 20260508064457 | 37 | 264 | 0.0 | 1.0 | 0.00 | 0.00 | 0.00 | 92 | 1011.8 |
| 20260508063955 | 37 | 259 | 1.0 | 1.0 | 0.00 | 0.00 | 0.00 | 91 | 1012.1 |
| 20260508063452 | 37 | 241 | 0.0 | 0.0 | 0.00 | 0.00 | 0.00 | 90 | 1012.1 |
| 20260508062950 | 38 | 239 | 0.0 | 0.0 | 0.00 | 0.00 | 0.00 | 89 | 1012.1 |
| 20260508062447 | 38 | 237 | 0.0 | 0.0 | 0.00 | 0.00 | 0.00 | 89 | 1011.8 |
| 20260508061944 | 38 | 247 | 0.0 | 0.0 | 0.00 | 0.00 | 0.00 | 88 | 1012.1 |
| 20260508061442 | 38 | 240 | 0.0 | 0.0 | 0.00 | 0.00 | 0.00 | 88 | 1011.8 |
| 20260508060938 | 39 | 242 | 0.0 | 0.0 | 0.00 | 0.00 | 0.00 | 88 | 1012.1 |
| 20260508060435 | 39 | 237 | 0.0 | 0.0 | 0.00 | 0.00 | 0.00 | 88 | 1012.1 |
| 20260508055931 | 39 | 233 | 1.0 | 1.0 | 0.00 | 0.00 | 0.00 | 87 | 1011.8 |
| 20260508055428 | 39 | 242 | 0.0 | 0.0 | 0.00 | 0.00 | 0.00 | 87 | 1012.1 |
| 20260508054924 | 39 | 240 | 0.0 | 0.0 | 0.00 | 0.00 | 0.00 | 86 | 1012.5 |
| 20260508054422 | 39 | 239 | 0.0 | 0.0 | 0.00 | 0.00 | 0.00 | 86 | 1012.1 |
| 20260508053919 | 39 | 239 | 0.0 | 0.0 | 0.00 | 0.00 | 0.00 | 85 | 1012.1 |
| 20260508053416 | 39 | 250 | 0.0 | 0.0 | 0.00 | 0.00 | 0.00 | 85 | 1012.1 |
| 20260508052914 | 40 | 265 | 0.0 | 0.0 | 0.00 | 0.00 | 0.00 | 85 | 1012.1 |
| 20260508052411 | 39 | 266 | 0.0 | 1.0 | 0.00 | 0.00 | 0.00 | 85 | 1012.1 |
| 20260508051906 | 39 | 304 | 1.0 | 2.0 | 0.00 | 0.00 | 0.00 | 85 | 1012.1 |
| 20260508051403 | 39 | 245 | 0.0 | 0.0 | 0.00 | 0.00 | 0.00 | 85 | 1012.1 |
| 20260508050859 | 39 | 240 | 0.0 | 0.0 | 0.00 | 0.00 | 0.00 | 84 | 1012.1 |
| 20260508050356 | 40 | 242 | 0.0 | 0.0 | 0.00 | 0.00 | 0.00 | 83 | 1012.1 |
| 20260508045852 | 41 | 240 | 0.0 | 0.0 | 0.00 | 0.00 | 0.00 | 81 | 1012.1 |
| 20260508045350 | 41 | 245 | 0.0 | 0.0 | 0.00 | 0.00 | 0.00 | 79 | 1012.1 |
| 20260508044847 | 42 | 269 | 1.0 | 1.0 | 0.00 | 0.00 | 0.00 | 78 | 1012.1 |
| 20260508044343 | 42 | 246 | 0.0 | 0.0 | 0.00 | 0.00 | 0.00 | 77 | 1012.1 |
| 20260508043839 | 42 | 252 | 0.0 | 1.0 | 0.00 | 0.00 | 0.00 | 77 | 1012.1 |
| 20260508043337 | 43 | 316 | 1.0 | 1.0 | 0.00 | 0.00 | 0.00 | 76 | 1012.1 |
| 20260508042833 | 43 | 264 | 1.0 | 2.0 | 0.00 | 0.00 | 0.00 | 75 | 1011.8 |
| 20260508042331 | 43 | 277 | 1.0 | 2.0 | 0.00 | 0.00 | 0.00 | 75 | 1012.1 |
| 20260508041828 | 42 | 243 | 2.0 | 2.0 | 0.00 | 0.00 | 0.00 | 75 | 1012.1 |
| 20260508041324 | 42 | 249 | 0.0 | 0.0 | 0.00 | 0.00 | 0.00 | 75 | 1012.1 |
| 20260508040820 | 42 | 218 | 0.0 | 1.0 | 0.00 | 0.00 | 0.00 | 75 | 1011.8 |
| 20260508040318 | 42 | 239 | 0.0 | 0.0 | 0.00 | 0.00 | 0.00 | 75 | 1012.1 |
| 20260508035815 | 43 | 243 | 0.0 | 0.0 | 0.00 | 0.00 | 0.00 | 73 | 1011.8 |
| 20260508035313 | 43 | 238 | 0.0 | 0.0 | 0.00 | 0.00 | 0.00 | 72 | 1011.8 |
| 20260508034809 | 44 | 239 | 0.0 | 0.0 | 0.00 | 0.00 | 0.00 | 71 | 1011.8 |
| 20260508034307 | 44 | 233 | 0.0 | 0.0 | 0.00 | 0.00 | 0.00 | 70 | 1011.8 |
| 20260508033803 | 44 | 250 | 0.0 | 0.0 | 0.00 | 0.00 | 0.00 | 70 | 1011.8 |
| 20260508033302 | 44 | 252 | 1.0 | 1.0 | 0.00 | 0.00 | 0.00 | 68 | 1012.1 |
| 20260508032759 | 43 | 250 | 0.0 | 0.0 | 0.00 | 0.00 | 0.00 | 70 | 1011.8 |